METAR Data
IDs: Format: Raw Decoded Include TAF

Data at: 1243 UTC 07 Jul 2020

KLWM 071215Z 11004KT 10SM FEW009 20/17 A3020 RMK AO2 T02000172
KLWM 071154Z 00000KT 10SM FEW075 19/17 A3020 RMK AO2 SLP225 T01890172 10189 20167 50008
KLWM 071054Z 00000KT 10SM OVC065 18/17 A3020 RMK AO2 SLP226 T01780167
KLWM 070954Z AUTO 00000KT 10SM OVC060 17/16 A3019 RMK AO2 SLP224 T01720161
KLWM 070854Z AUTO 13003KT 10SM SCT003 OVC070 17/16 A3017 RMK AO2 SLP217 T01670161 53001
KLWM 070841Z AUTO 12003KT 10SM BKN003 BKN065 17/16 A3018 RMK AO2 T01670161
KLWM 070823Z AUTO 00000KT 10SM FEW004 BKN065 BKN080 17/16 A3017 RMK AO2 T01670156
KLWM 070754Z AUTO 00000KT 10SM BKN065 17/16 A3017 RMK AO2 SLP216 T01720161
KLWM 070654Z AUTO 00000KT 10SM CLR 17/16 A3017 RMK AO2 SLP216 T01670156
KLWM 070554Z AUTO 00000KT 10SM FEW075 17/16 A3017 RMK AO2 SLP216 T01670156 10206 20167 58001
KLWM 070454Z AUTO 00000KT 10SM SCT075 17/16 A3018 RMK AO2 SLP218 T01670156 402560167
KLWM 070354Z AUTO 00000KT 10SM SCT085 17/16 A3018 RMK AO2 SLP218 T01670156
KLWM 070254Z AUTO 00000KT 10SM FEW085 17/16 A3017 RMK AO2 SLP217 T01720156 51015
KLWM 070154Z 20003KT 10SM CLR 17/16 A3016 RMK AO2 SLP213 T01720156
KLWM 070054Z 15003KT 10SM CLR 19/16 A3015 RMK AO2 SLP209 T01890156
KLWM 062354Z 13004KT 10SM CLR 21/14 A3013 RMK AO2 SLP203 T02060139 10256 20206 51006
KLWM 062254Z 10005KT 10SM CLR 24/14 A3013 RMK AO2 SLP203 T02390144
KLWM 062154Z VRB04KT 10SM CLR 24/14 A3012 RMK AO2 SLP199 T02440139
KLWM 062054Z 10006KT 10SM CLR 24/13 A3011 RMK AO2 SLP196 T02390133 58002
KLWM 061954Z 07010KT 10SM CLR 24/14 A3012 RMK AO2 SLP199 T02440144
KLWM 061854Z 09008KT 10SM CLR 25/16 A3012 RMK AO2 SLP199 T02500161
KLWM 061754Z 08007KT 10SM CLR 26/17 A3012 RMK AO2 SLP197 T02560172 10256 20200 51004
KLWM 061654Z 06009KT 10SM CLR 24/18 A3012 RMK AO2 SLP198 T02440183
KLWM 061554Z 09009KT 10SM FEW038 24/18 A3011 RMK AO2 SLP197 T02440178
KLWM 061454Z 09007KT 10SM SCT019 SCT026 BKN036 23/18 A3011 RMK AO2 SLP194 T02330183 53015
KLWM 061446Z 05006KT 10SM FEW019 SCT028 OVC034 23/17 A3010 RMK AO2 T02280172
KLWM 061354Z 05008KT 10SM OVC020 23/18 A3008 RMK AO2 SLP186 T02330183
KLWM 061340Z 05008KT 10SM BKN020 23/18 A3008 RMK AO2 T02330183
KLWM 061328Z 01006KT 10SM SCT018 SCT023 22/18 A3008 RMK AO2 T02170178
KLWM 061254Z 05008KT 10SM BKN017 22/18 A3008 RMK AO2 SLP185 T02170183
KLWM 061233Z 03006KT 10SM SCT008 SCT013 20/18 A3007 RMK AO2 T02000178
KLWM 061154Z 01003KT 10SM BKN008 OVC014 20/18 A3006 RMK AO2 CIG 006V012 SLP179 70021 T02000183 10200 20178 51018
KLWM 061054Z 36004KT 10SM OVC006 19/18 A3005 RMK AO2 CIG 005V009 SLP174 T01890178
KLWM 061029Z 02003KT 10SM BKN006 OVC011 18/17 A3004 RMK AO2 T01830172
KLWM 061014Z AUTO 04003KT 10SM SCT004 OVC011 18/17 A3003 RMK AO2 T01830172
KLWM 060954Z AUTO 03005KT 6SM BR OVC002 18/17 A3003 RMK AO2 SLP168 T01780172
KLWM 060854Z AUTO 35005KT 7SM OVC003 18/17 A3001 RMK AO2 SLP161 T01780172 53008
KLWM 060754Z AUTO 05003KT 7SM OVC003 18/17 A3000 RMK AO2 SLP156 T01780172
KLWM 060654Z AUTO 00000KT 6SM BR OVC003 18/17 A3000 RMK AO2 SLP156 T01780172
KLWM 060630Z AUTO 36003KT 7SM BKN003 OVC007 18/17 A2999 RMK AO2 CIG 002V006 T01780172
KLWM 060614Z AUTO 01005KT 10SM OVC005 18/17 A2999 RMK AO2 CIG 002V007 T01780172
KLWM 060554Z AUTO 35004KT 8SM BKN002 OVC007 18/18 A2999 RMK AO2 CIG 002V006 SLP152 60012 T01830178 10217 20172 53002
KLWM 060545Z AUTO 00000KT 6SM BR BKN002 OVC007 18/18 A2999 RMK AO2 T01830178
KLWM 060529Z AUTO 01005KT 8SM SCT002 BKN006 BKN120 18/18 A2998 RMK AO2 T01830178
KLWM 060520Z AUTO 36004KT 9SM FEW002 SCT006 BKN120 18/18 A2998 RMK AO2 T01830178
KLWM 060454Z AUTO 00000KT 10SM CLR 18/17 A2998 RMK AO2 SLP150 T01780172 402940167
KLWM 060354Z AUTO 00000KT 10SM FEW075 18/17 A2997 RMK AO2 LTG DSNT E RAE03 TSE00 SLP147 P0000 T01830172
KLWM 060321Z AUTO 11003KT 10SM FEW018 SCT024 19/18 A2996 RMK AO2 LTG DSNT E AND SE RAE03 TSE00 P0000 T01890183
KLWM 060306Z AUTO 10004KT 10SM FEW006 BKN018 OVC024 19/18 A2997 RMK AO2 LTG DSNT ALQDS RAE03 TSE00 P0000 T01940183
KLWM 060254Z AUTO 10005KT 6SM -TSRA BR FEW005 SCT012 OVC018 19/18 A2998 RMK AO2 LTG DSNT ALQDS RAB06 TSE21B45 SLP152 P0012 60012 T01940183 50015
KLWM 060245Z AUTO 10009KT 3SM +TSRA BR SCT005 BKN011 OVC026 19/18 A2998 RMK AO2 LTG DSNT NE-S RAB06 TSE21B45 P0012 T01940183
KLWM 060242Z AUTO VRB06KT 3SM +RA BR BKN006 BKN013 OVC018 19/18 A2999 RMK AO2 LTG DSNT NE-S RAB06 TSE21 P0009 T01940183
KLWM 060221Z AUTO 36005KT 9SM VCTS -RA BKN006 BKN012 OVC100 19/18 A2999 RMK AO2 LTG DSNT ALQDS RAB06 TSE21 P0001 T01940183
KLWM 060213Z AUTO 35007KT 320V020 8SM -RA SCT006 BKN010 BKN085 20/19 A2998 RMK AO2 LTG DSNT ALQDS RAB06 CIG 009V012 P0000 T02000189
KLWM 060154Z 01010KT 10SM SCT085 BKN120 21/19 A2996 RMK AO2 LTG DSNT ALQDS SLP146 T02060189
KLWM 060054Z 06005KT 10SM CLR 21/19 A2994 RMK AO2 LTG DSNT W SLP136 T02060189